Time;durP1;ratioP1;P1;durP2;ratioP2;P2;SDS_P1;SDS_P2;PMS_P1;PMS_P2;Temp;Humidity;BMP_temperature;BMP_pressure;BME280_temperature;BME280_humidity;BME280_pressure;Samples;Min_cycle;Max_cycle;Signal;HPM_P1;HPM_P2
2021/01/25 00:00:16;;;;;;;2.30;1.40;;;21.80;50.30;;;;;;5036163;28;20426;-83
2021/01/25 00:02:42;;;;;;;1.73;1.40;;;21.80;50.30;;;;;;5036936;28;20483;-84
2021/01/25 00:05:10;;;;;;;2.90;2.03;;;21.90;50.50;;;;;;5052880;28;20419;-84
2021/01/25 00:07:36;;;;;;;1.93;1.70;;;21.80;50.40;;;;;;5037691;28;20410;-83
2021/01/25 00:10:03;;;;;;;1.77;1.30;;;21.80;50.40;;;;;;5037548;28;20426;-84
2021/01/25 00:12:29;;;;;;;2.07;1.40;;;21.80;51.00;;;;;;5034983;28;20415;-85
2021/01/25 00:14:56;;;;;;;2.43;1.60;;;21.80;50.40;;;;;;5037431;28;20493;-84
2021/01/25 00:17:21;;;;;;;2.00;1.40;;;21.80;50.40;;;;;;5053092;28;20398;-84
2021/01/25 00:19:48;;;;;;;2.07;1.47;;;21.80;50.40;;;;;;5034209;28;20422;-84
2021/01/25 00:22:13;;;;;;;2.13;1.33;;;21.80;50.50;;;;;;5052050;28;20168;-84
2021/01/25 00:24:41;;;;;;;1.70;1.40;;;21.80;50.50;;;;;;5034191;28;20418;-84
2021/01/25 00:27:09;;;;;;;1.67;1.30;;;21.80;50.50;;;;;;5035063;28;20187;-83
2021/01/25 00:29:35;;;;;;;1.83;1.30;;;21.80;50.50;;;;;;5051892;28;20417;-84
2021/01/25 00:32:06;;;;;;;1.60;1.30;;;21.70;50.40;;;;;;5034655;28;20498;-84
2021/01/25 00:34:32;;;;;;;4.10;3.13;;;21.80;50.50;;;;;;5034225;28;20447;-83
2021/01/25 00:36:59;;;;;;;2.30;1.33;;;21.70;50.50;;;;;;5034688;28;20410;-84
2021/01/25 00:39:25;;;;;;;2.70;1.50;;;21.70;50.50;;;;;;5034442;28;20916;-83
2021/01/25 00:41:51;;;;;;;3.10;1.70;;;21.70;50.50;;;;;;5053038;28;20459;-84
2021/01/25 00:47:39;;;;;;;1.33;1.10;;;21.70;50.50;;;;;;5052824;28;20373;-83
2021/01/25 00:50:07;;;;;;;2.03;1.40;;;21.60;50.50;;;;;;5053498;28;20406;-84
2021/01/25 00:52:33;;;;;;;2.20;1.23;;;21.60;50.50;;;;;;5051159;28;20442;-83
2021/01/25 00:54:59;;;;;;;2.37;1.43;;;21.70;50.60;;;;;;5036767;28;20469;-83
2021/01/25 00:57:24;;;;;;;3.77;1.50;;;21.70;50.60;;;;;;5034653;28;20418;-83
2021/01/25 00:59:50;;;;;;;2.27;1.70;;;21.60;50.50;;;;;;5052589;28;20417;-84
2021/01/25 01:02:18;;;;;;;1.47;1.30;;;21.70;50.60;;;;;;5050949;28;20441;-84
2021/01/25 01:04:44;;;;;;;1.90;1.43;;;21.70;50.60;;;;;;5032903;28;20426;-84
2021/01/25 01:07:11;;;;;;;1.40;1.23;;;21.60;50.50;;;;;;5050524;28;20518;-84
2021/01/25 01:09:37;;;;;;;1.90;1.40;;;21.60;50.50;;;;;;5033174;28;20453;-84
2021/01/25 01:12:03;;;;;;;2.23;1.40;;;21.60;50.50;;;;;;5050816;28;20425;-84
2021/01/25 01:14:29;;;;;;;2.20;1.33;;;21.60;50.50;;;;;;5033420;28;20457;-84
2021/01/25 01:20:17;;;;;;;1.43;1.00;;;21.70;50.60;;;;;;5049714;28;20159;-85
2021/01/25 01:22:44;;;;;;;1.40;1.23;;;21.60;50.60;;;;;;5052682;28;20411;-85
2021/01/25 01:25:10;;;;;;;2.23;1.20;;;21.60;50.50;;;;;;5035252;28;20429;-85
2021/01/25 01:27:36;;;;;;;1.57;1.10;;;21.60;50.50;;;;;;5031816;28;20334;-85
2021/01/25 01:33:24;;;;;;;2.27;1.30;;;21.70;50.50;;;;;;5049740;28;20170;-84
2021/01/25 01:35:50;;;;;;;2.00;1.30;;;21.60;50.60;;;;;;5034369;28;20438;-84
2021/01/25 01:38:16;;;;;;;2.33;1.20;;;21.60;50.60;;;;;;5035086;28;20429;-84
2021/01/25 01:40:42;;;;;;;2.33;1.60;;;21.60;50.60;;;;;;5033171;28;20426;-83
2021/01/25 01:43:08;;;;;;;2.50;1.30;;;21.60;50.60;;;;;;5032904;28;20433;-84
2021/01/25 01:45:34;;;;;;;2.87;2.57;;;21.60;50.50;;;;;;5033203;28;20479;-84
2021/01/25 01:48:00;;;;;;;1.47;1.10;;;21.60;50.50;;;;;;5032725;28;20415;-84
2021/01/25 01:50:26;;;;;;;2.43;1.17;;;21.60;51.10;;;;;;5050737;28;20179;-84
2021/01/25 01:52:52;;;;;;;1.30;1.20;;;21.60;50.50;;;;;;5066357;28;20422;-84
2021/01/25 01:55:18;;;;;;;1.57;1.23;;;21.60;50.50;;;;;;5032818;28;20502;-84
2021/01/25 01:57:51;;;;;;;1.97;1.20;;;21.60;50.50;;;;;;5032002;28;20534;-84
2021/01/25 02:00:18;;;;;;;1.47;1.23;;;21.60;50.50;;;;;;5049153;28;20757;-87
2021/01/25 02:02:44;;;;;;;1.47;1.03;;;21.60;50.50;;;;;;5049707;28;20414;-85
2021/01/25 02:05:11;;;;;;;1.70;1.30;;;21.60;50.60;;;;;;5051684;28;20429;-86
2021/01/25 02:07:38;;;;;;;1.90;1.27;;;21.60;50.60;;;;;;5031939;28;20438;-86
2021/01/25 02:10:05;;;;;;;3.80;1.40;;;21.60;50.60;;;;;;5050798;28;20414;-86
2021/01/25 02:12:32;;;;;;;1.47;1.20;;;21.60;50.60;;;;;;5050910;28;20418;-86
2021/01/25 02:15:00;;;;;;;2.50;1.23;;;21.60;50.60;;;;;;5031121;28;20478;-85
2021/01/25 02:17:26;;;;;;;1.53;1.00;;;21.60;50.60;;;;;;5033889;28;20426;-86
2021/01/25 02:20:13;;;;;;;1.70;1.10;;;21.50;50.50;;;;;;5034535;28;20418;-86
2021/01/25 02:23:17;;;;;;;2.37;1.10;;;21.60;50.60;;;;;;5035580;28;20207;-86
2021/01/25 02:26:05;;;;;;;2.20;1.17;;;21.60;50.60;;;;;;5033090;28;20425;-86
2021/01/25 02:28:31;;;;;;;2.10;1.23;;;21.50;50.60;;;;;;5052625;28;20736;-85
2021/01/25 02:30:59;;;;;;;1.63;1.30;;;21.50;50.60;;;;;;5034508;28;20422;-86
2021/01/25 02:33:28;;;;;;;1.53;1.20;;;21.50;50.60;;;;;;5034181;28;20410;-86
2021/01/25 02:35:55;;;;;;;1.93;1.20;;;21.50;50.60;;;;;;5052721;28;20406;-86
2021/01/25 02:38:23;;;;;;;1.30;1.03;;;21.50;50.60;;;;;;5033765;28;20415;-86
2021/01/25 02:40:52;;;;;;;1.63;1.10;;;21.50;50.60;;;;;;5034354;28;20418;-86
2021/01/25 02:43:18;;;;;;;1.73;1.30;;;21.50;50.60;;;;;;5052590;28;20417;-86
2021/01/25 02:45:45;;;;;;;1.83;1.20;;;21.50;50.60;;;;;;5036904;28;20418;-85
2021/01/25 02:48:11;;;;;;;2.33;1.77;;;21.50;50.60;;;;;;5053502;28;20417;-86
2021/01/25 02:50:40;;;;;;;1.70;1.10;;;21.50;50.60;;;;;;5035408;28;20418;-86
2021/01/25 02:53:10;;;;;;;1.50;1.20;;;21.50;50.60;;;;;;5052285;28;20182;-86
2021/01/25 02:55:36;;;;;;;1.50;1.07;;;21.50;50.60;;;;;;5052879;28;20898;-86
2021/01/25 02:58:02;;;;;;;1.40;1.17;;;21.50;50.50;;;;;;5036659;28;20425;-85
2021/01/25 03:00:30;;;;;;;1.83;1.30;;;21.50;50.60;;;;;;5035703;28;20432;-86
2021/01/25 03:02:56;;;;;;;4.37;1.73;;;21.50;50.60;;;;;;5033919;28;21065;-86
2021/01/25 03:05:22;;;;;;;2.93;2.23;;;21.50;50.50;;;;;;5051878;28;20414;-85
2021/01/25 03:07:50;;;;;;;1.73;1.20;;;21.50;50.50;;;;;;5050765;28;20457;-86
2021/01/25 03:10:16;;;;;;;1.83;1.20;;;21.50;50.50;;;;;;5051872;28;20160;-86
2021/01/25 03:12:42;;;;;;;1.60;1.23;;;21.50;50.50;;;;;;5034242;28;20892;-86
2021/01/25 03:15:13;;;;;;;2.00;1.30;;;21.50;50.50;;;;;;5034089;28;20199;-85
2021/01/25 03:17:40;;;;;;;1.47;1.20;;;21.50;50.50;;;;;;5051881;28;20156;-85
2021/01/25 03:20:08;;;;;;;1.20;0.97;;;21.50;50.50;;;;;;5051268;28;20411;-86
2021/01/25 03:22:34;;;;;;;2.30;1.37;;;21.50;50.50;;;;;;5051488;28;20410;-86
2021/01/25 03:25:49;;;;;;;1.60;1.10;;;21.50;50.70;;;;;;5034826;28;20460;-85
2021/01/25 03:28:15;;;;;;;1.40;1.10;;;21.50;50.50;;;;;;5052736;28;20548;-85
2021/01/25 03:31:04;;;;;;;1.03;0.90;;;21.50;50.60;;;;;;5032841;28;20418;-85
2021/01/25 03:33:30;;;;;;;1.60;1.30;;;21.50;50.60;;;;;;5054335;28;20156;-85
2021/01/25 03:35:56;;;;;;;1.73;1.27;;;21.40;50.60;;;;;;5051480;28;20513;-86
2021/01/25 03:38:24;;;;;;;3.40;1.30;;;21.50;50.60;;;;;;5035153;28;20172;-85
2021/01/25 03:40:50;;;;;;;2.10;1.20;;;21.50;50.60;;;;;;5053292;28;20207;-85
2021/01/25 03:43:15;;;;;;;2.30;1.20;;;21.40;50.60;;;;;;5051804;28;20387;-86
2021/01/25 03:45:41;;;;;;;1.60;1.00;;;21.50;50.60;;;;;;5051332;28;20199;-84
2021/01/25 03:48:08;;;;;;;1.83;1.17;;;21.50;50.70;;;;;;5033456;28;20185;-84
2021/01/25 03:50:34;;;;;;;1.70;1.33;;;21.40;50.60;;;;;;5050996;28;20175;-84
2021/01/25 03:53:01;;;;;;;1.50;1.20;;;21.40;50.60;;;;;;5050686;28;20423;-85
2021/01/25 03:55:27;;;;;;;1.47;1.10;;;21.40;50.60;;;;;;5032116;28;20457;-84
2021/01/25 03:57:53;;;;;;;1.83;1.10;;;21.40;50.60;;;;;;5033261;28;20800;-85
2021/01/25 04:00:21;;;;;;;1.47;0.90;;;21.40;50.60;;;;;;5032668;28;20194;-85
2021/01/25 04:02:47;;;;;;;1.40;1.03;;;21.50;50.60;;;;;;5050432;28;20168;-85
2021/01/25 04:05:49;;;;;;;1.33;1.00;;;21.50;50.60;;;;;;5050129;28;20462;-85
2021/01/25 04:08:15;;;;;;;1.63;1.37;;;21.50;50.50;;;;;;5033775;28;20191;-85
2021/01/25 04:10:45;;;;;;;1.70;1.20;;;21.50;50.60;;;;;;5032586;28;20448;-85
2021/01/25 04:13:11;;;;;;;2.63;1.20;;;21.50;50.60;;;;;;5052335;28;20437;-86
2021/01/25 04:15:37;;;;;;;1.47;1.00;;;21.50;50.60;;;;;;5033528;28;20468;-86
2021/01/25 04:18:03;;;;;;;1.20;0.90;;;21.40;50.50;;;;;;5050282;28;20518;-85
2021/01/25 04:20:29;;;;;;;3.40;1.53;;;21.50;50.60;;;;;;5052118;28;20171;-86
2021/01/25 04:22:55;;;;;;;1.40;1.00;;;21.50;50.60;;;;;;5049879;28;20461;-86
2021/01/25 04:25:20;;;;;;;1.50;1.10;;;21.40;50.50;;;;;;5049890;28;20186;-85
2021/01/25 04:27:46;;;;;;;1.23;1.10;;;21.40;50.50;;;;;;5049632;28;20175;-86
2021/01/25 04:30:13;;;;;;;1.40;1.20;;;21.50;50.60;;;;;;5031917;28;20187;-86
2021/01/25 04:32:39;;;;;;;1.27;1.17;;;21.40;50.50;;;;;;5031594;28;20202;-86
2021/01/25 04:35:07;;;;;;;1.23;1.00;;;21.50;50.60;;;;;;5049000;28;20449;-86
2021/01/25 04:37:33;;;;;;;1.40;1.07;;;21.40;50.50;;;;;;5031512;28;20415;-85
2021/01/25 04:39:59;;;;;;;1.30;1.07;;;21.50;50.50;;;;;;5031839;28;20422;-86
2021/01/25 04:42:25;;;;;;;1.40;1.30;;;21.40;50.50;;;;;;5031313;28;20187;-86
2021/01/25 04:44:51;;;;;;;1.30;1.00;;;21.40;50.50;;;;;;5049303;28;20176;-86
2021/01/25 04:47:21;;;;;;;1.77;1.07;;;21.40;50.50;;;;;;5033569;28;20423;-85
2021/01/25 04:49:51;;;;;;;1.80;1.20;;;21.40;50.50;;;;;;5034239;28;20850;-84
2021/01/25 04:52:22;;;;;;;1.23;1.13;;;21.40;51.10;;;;;;5049123;28;20419;-84
2021/01/25 04:54:48;;;;;;;1.17;0.90;;;21.40;50.60;;;;;;5052234;28;20450;-86
2021/01/25 04:57:15;;;;;;;1.40;1.27;;;21.30;50.50;;;;;;5050667;28;20403;-86
2021/01/25 04:59:43;;;;;;;1.77;1.40;;;21.40;50.70;;;;;;5050062;28;20406;-86
2021/01/25 05:02:09;;;;;;;1.70;1.00;;;21.30;50.60;;;;;;5051545;28;20414;-86
2021/01/25 05:04:35;;;;;;;1.40;1.00;;;21.40;51.20;;;;;;5049463;28;20494;-84
2021/01/25 05:07:01;;;;;;;1.20;0.90;;;21.30;50.60;;;;;;5031551;28;20425;-84
2021/01/25 05:09:27;;;;;;;1.40;1.00;;;21.30;50.70;;;;;;5048472;28;20422;-86
2021/01/25 05:11:59;;;;;;;1.40;1.03;;;21.30;50.70;;;;;;5049285;28;20172;-85
2021/01/25 05:14:36;;;;;;;1.50;1.00;;;21.30;50.70;;;;;;5031268;28;20210;-86
2021/01/25 05:17:06;;;;;;;1.63;1.00;;;21.20;50.60;;;;;;5049165;28;20728;-84
2021/01/25 05:19:32;;;;;;;1.40;1.20;;;21.30;50.70;;;;;;5031700;28;20416;-85
2021/01/25 05:21:57;;;;;;;1.10;0.90;;;21.30;50.70;;;;;;5048601;28;20442;-85
2021/01/25 05:24:23;;;;;;;1.50;0.90;;;21.20;50.70;;;;;;5031019;28;20239;-85
2021/01/25 05:26:56;;;;;;;1.50;1.17;;;21.20;50.70;;;;;;5049389;28;20179;-84
2021/01/25 05:29:29;;;;;;;1.30;0.90;;;21.30;50.70;;;;;;5034401;28;20183;-85
2021/01/25 05:31:56;;;;;;;1.80;1.10;;;21.30;50.80;;;;;;5049846;28;20426;-84
2021/01/25 05:34:23;;;;;;;1.00;0.90;;;21.20;50.70;;;;;;5050013;28;20486;-84
2021/01/25 05:36:49;;;;;;;1.77;0.90;;;21.20;50.70;;;;;;5034308;28;20411;-84
2021/01/25 05:39:36;;;;;;;1.60;1.00;;;21.30;50.70;;;;;;5031027;28;20406;-84
2021/01/25 05:42:02;;;;;;;1.30;1.00;;;21.30;50.70;;;;;;5034408;28;20406;-85
2021/01/25 05:47:52;;;;;;;1.30;1.00;;;21.30;50.70;;;;;;5049031;28;20754;-85
2021/01/25 05:50:32;;;;;;;1.53;1.10;;;21.30;50.70;;;;;;5048607;28;20402;-85
2021/01/25 05:53:01;;;;;;;1.17;0.90;;;21.30;50.70;;;;;;5049073;28;20421;-86
2021/01/25 05:55:28;;;;;;;1.70;1.10;;;21.30;50.60;;;;;;5051808;28;20450;-86
2021/01/25 05:57:54;;;;;;;1.63;1.10;;;21.30;50.60;;;;;;5052438;28;20406;-85
2021/01/25 06:00:21;;;;;;;1.10;0.93;;;21.30;50.50;;;;;;5035682;28;20429;-86
2021/01/25 06:02:49;;;;;;;1.17;1.00;;;21.30;50.50;;;;;;5052392;28;20417;-86
2021/01/25 06:05:42;;;;;;;1.00;0.90;;;21.40;50.50;;;;;;5052374;28;20438;-86
2021/01/25 06:08:13;;;;;;;1.40;0.90;;;21.40;50.50;;;;;;5050841;28;20457;-85
2021/01/25 06:10:49;;;;;;;1.23;0.80;;;21.40;50.50;;;;;;5054175;28;20472;-86
2021/01/25 06:13:17;;;;;;;1.20;1.00;;;21.40;50.50;;;;;;5035148;28;20445;-86
2021/01/25 06:15:48;;;;;;;2.43;1.00;;;21.40;50.40;;;;;;5055572;28;20533;-86
2021/01/25 06:18:17;;;;;;;1.30;0.90;;;21.50;50.50;;;;;;5053952;28;20414;-86
2021/01/25 06:20:44;;;;;;;1.20;0.90;;;21.40;50.40;;;;;;5035575;28;20420;-86
2021/01/25 06:23:11;;;;;;;1.37;1.10;;;21.50;50.40;;;;;;5037203;28;20418;-86
2021/01/25 06:25:37;;;;;;;1.30;0.83;;;21.50;50.40;;;;;;5053344;28;20418;-86
2021/01/25 06:28:04;;;;;;;1.40;1.00;;;21.50;50.40;;;;;;5051700;28;20418;-86
2021/01/25 06:30:31;;;;;;;1.20;0.80;;;21.50;50.40;;;;;;5053511;28;20425;-86
2021/01/25 06:32:58;;;;;;;1.70;1.20;;;21.50;50.40;;;;;;5034000;28;20420;-86
2021/01/25 06:35:31;;;;;;;1.70;1.00;;;21.50;50.30;;;;;;5034031;28;20458;-85
2021/01/25 06:37:58;;;;;;;1.30;1.03;;;21.50;50.30;;;;;;5034414;28;20501;-84
2021/01/25 06:40:28;;;;;;;1.20;1.00;;;21.50;50.30;;;;;;5033208;28;20473;-86
2021/01/25 06:42:57;;;;;;;1.70;1.30;;;21.50;50.30;;;;;;5051608;28;20429;-87
2021/01/25 06:46:14;;;;;;;;;;;;;;;;;;;;;
2021/01/25 06:52:13;;;;;;;1.13;0.87;;;21.50;50.30;;;;;;4991766;28;20765;-88
2021/01/25 06:54:46;;;;;;;1.50;1.00;;;21.50;50.30;;;;;;4971238;28;20463;-88
2021/01/25 06:57:22;;;;;;;2.23;1.23;;;21.50;50.30;;;;;;4975697;28;20818;-88
2021/01/25 06:59:58;;;;;;;1.67;1.20;;;21.50;50.30;;;;;;4972317;28;20431;-89
2021/01/25 07:02:50;;;;;;;1.33;1.00;;;21.50;50.30;;;;;;4972555;28;20435;-88
2021/01/25 07:05:20;;;;;;;1.20;0.87;;;21.60;50.30;;;;;;4961459;28;20425;-88
2021/01/25 07:07:46;;;;;;;1.73;0.97;;;21.60;50.40;;;;;;4970148;28;20452;-87
2021/01/25 07:10:16;;;;;;;1.47;0.90;;;21.60;50.30;;;;;;4988506;28;20433;-87
2021/01/25 07:12:43;;;;;;;1.30;1.00;;;21.60;50.30;;;;;;4989270;28;20185;-87
2021/01/25 07:15:11;;;;;;;1.13;0.90;;;21.60;50.30;;;;;;4989347;28;20554;-87
2021/01/25 07:17:37;;;;;;;1.23;0.93;;;21.60;50.30;;;;;;4996999;28;20417;-87
2021/01/25 07:20:18;;;;;;;1.63;1.30;;;21.60;50.30;;;;;;5031587;28;20407;-88
2021/01/25 07:22:47;;;;;;;1.83;1.00;;;21.60;50.20;;;;;;5031379;28;20789;-87
2021/01/25 07:25:15;;;;;;;1.37;0.90;;;21.70;50.30;;;;;;5032343;28;20434;-87
2021/01/25 07:27:42;;;;;;;0.93;0.83;;;21.60;50.20;;;;;;5032146;28;20430;-87
2021/01/25 07:30:08;;;;;;;1.40;1.13;;;21.70;50.30;;;;;;5052432;28;20414;-87
2021/01/25 07:32:34;;;;;;;1.23;0.90;;;21.70;50.30;;;;;;5035216;28;20449;-88
2021/01/25 07:35:03;;;;;;;1.37;0.90;;;21.70;50.20;;;;;;5032438;28;20469;-87
2021/01/25 07:37:31;;;;;;;1.43;0.87;;;21.70;50.20;;;;;;5053799;28;20198;-87
2021/01/25 07:39:57;;;;;;;1.40;1.03;;;21.70;50.20;;;;;;5034313;28;20421;-86
2021/01/25 07:42:23;;;;;;;1.30;0.90;;;21.70;50.20;;;;;;5034191;28;20935;-87
2021/01/25 07:44:57;;;;;;;1.00;0.80;;;21.70;50.20;;;;;;5053729;28;20453;-86
2021/01/25 07:47:22;;;;;;;1.00;0.87;;;21.80;50.30;;;;;;5050863;28;20423;-86
2021/01/25 07:49:48;;;;;;;1.63;0.93;;;21.70;50.20;;;;;;5031752;28;20449;-87
2021/01/25 07:52:17;;;;;;;1.97;1.47;;;21.80;50.20;;;;;;5031689;28;20188;-87
2021/01/25 07:54:47;;;;;;;1.37;1.00;;;21.80;50.20;;;;;;5049507;28;20214;-87
2021/01/25 07:57:21;;;;;;;1.33;1.23;;;21.80;50.20;;;;;;5049781;28;20410;-87
2021/01/25 07:59:50;;;;;;;1.50;1.00;;;21.80;50.20;;;;;;5031780;28;20410;-86
2021/01/25 08:02:17;;;;;;;1.47;0.97;;;21.80;50.20;;;;;;5049123;28;20421;-86
2021/01/25 08:04:45;;;;;;;1.10;0.90;;;21.80;50.20;;;;;;5030687;28;20418;-87
2021/01/25 08:07:14;;;;;;;1.60;0.90;;;21.80;50.20;;;;;;5049478;28;20422;-87
2021/01/25 08:09:46;;;;;;;3.00;1.40;;;21.80;50.20;;;;;;5032455;28;20438;-87
2021/01/25 08:12:15;;;;;;;1.30;0.80;;;21.80;50.20;;;;;;5035045;28;20449;-86
2021/01/25 08:14:49;;;;;;;1.00;0.80;;;21.80;50.20;;;;;;5032863;28;20478;-86
2021/01/25 08:17:25;;;;;;;2.17;0.97;;;21.80;50.20;;;;;;5033087;28;20415;-85
2021/01/25 08:20:54;;;;;;;;;;;;;;;;;;;;;
2021/01/25 08:44:27;;;;;;;3.10;2.40;;;21.40;48.50;;;;;;4947558;29;20415;-87
2021/01/25 08:46:56;;;;;;;2.40;1.80;;;21.40;48.30;;;;;;4934197;29;20483;-85
2021/01/25 08:49:41;;;;;;;2.37;2.17;;;21.40;48.10;;;;;;4932027;29;20428;-85
2021/01/25 08:52:27;;;;;;;2.40;1.77;;;21.50;48.50;;;;;;4932427;29;20427;-83
2021/01/25 08:55:08;;;;;;;2.40;1.97;;;21.60;48.80;;;;;;4938422;29;20789;-84
2021/01/25 08:57:38;;;;;;;2.40;1.93;;;21.60;48.80;;;;;;4952919;29;20411;-84
2021/01/25 09:00:19;;;;;;;1.70;1.60;;;21.70;48.90;;;;;;4967768;28;20449;-83
2021/01/25 09:02:46;;;;;;;2.53;1.90;;;21.70;48.80;;;;;;4977153;28;20433;-83
2021/01/25 09:05:14;;;;;;;2.70;1.93;;;21.70;48.90;;;;;;4975349;28;20421;-83
2021/01/25 09:07:40;;;;;;;1.90;1.70;;;21.80;49.00;;;;;;4976103;28;20413;-83
2021/01/25 09:10:08;;;;;;;2.93;1.80;;;21.80;49.00;;;;;;4977833;28;20425;-83
2021/01/25 09:12:34;;;;;;;2.20;1.70;;;21.90;49.10;;;;;;4958708;28;20265;-83
2021/01/25 09:15:00;;;;;;;1.93;1.70;;;21.90;49.00;;;;;;4989116;28;20457;-83
2021/01/25 09:17:26;;;;;;;2.10;1.80;;;22.00;49.10;;;;;;4973611;28;20425;-85
2021/01/25 09:19:52;;;;;;;3.70;1.60;;;22.00;49.10;;;;;;5004276;28;20202;-86
2021/01/25 09:22:19;;;;;;;2.60;1.87;;;22.00;49.20;;;;;;5052516;28;20537;-84
2021/01/25 09:24:45;;;;;;;3.87;2.80;;;22.10;49.80;;;;;;5036419;28;20179;-84
2021/01/25 09:27:11;;;;;;;3.50;3.20;;;22.00;49.20;;;;;;5053963;28;20481;-83
2021/01/25 09:29:38;;;;;;;4.70;2.80;;;22.10;49.30;;;;;;5051661;28;20497;-85
2021/01/25 09:32:06;;;;;;;3.90;3.20;;;22.10;49.30;;;;;;5053219;28;20424;-84
2021/01/25 09:34:32;;;;;;;3.00;2.63;;;22.10;49.30;;;;;;5073467;28;20453;-83
2021/01/25 09:37:02;;;;;;;4.37;3.80;;;22.20;49.40;;;;;;5070475;28;20409;-84
2021/01/25 09:39:31;;;;;;;4.97;3.20;;;22.20;49.30;;;;;;5054130;28;20954;-86
2021/01/25 09:41:57;;;;;;;3.60;2.67;;;22.20;49.30;;;;;;5069268;28;20409;-86
2021/01/25 09:44:25;;;;;;;6.80;3.37;;;22.30;49.40;;;;;;5068271;28;20429;-86
2021/01/25 09:46:56;;;;;;;2.80;2.60;;;22.30;49.40;;;;;;5069650;28;20622;-86
2021/01/25 09:49:23;;;;;;;4.43;3.47;;;22.30;49.40;;;;;;5050056;28;20424;-86
2021/01/25 09:51:49;;;;;;;5.00;2.90;;;22.30;49.40;;;;;;5050539;28;20489;-86
2021/01/25 09:54:18;;;;;;;4.10;2.67;;;22.30;49.40;;;;;;5049724;28;20464;-87
2021/01/25 09:56:46;;;;;;;2.73;2.50;;;22.30;49.40;;;;;;5048873;28;20413;-86
2021/01/25 09:59:13;;;;;;;4.13;2.97;;;22.40;49.40;;;;;;5049173;28;20508;-87
2021/01/25 10:01:39;;;;;;;3.57;2.47;;;22.40;49.40;;;;;;5050705;28;20451;-87
2021/01/25 10:04:08;;;;;;;4.83;2.80;;;22.40;49.40;;;;;;5049622;28;20422;-87
2021/01/25 10:06:34;;;;;;;7.00;2.90;;;22.40;49.50;;;;;;5050976;28;20187;-86
2021/01/25 10:09:00;;;;;;;3.80;2.83;;;22.40;49.40;;;;;;5068389;28;20456;-87
2021/01/25 10:11:26;;;;;;;3.07;2.57;;;22.40;49.40;;;;;;5067333;28;20409;-86
2021/01/25 10:13:52;;;;;;;5.80;2.93;;;22.50;49.50;;;;;;5051742;28;20207;-87
2021/01/25 10:16:19;;;;;;;2.87;2.40;;;22.50;49.60;;;;;;5070290;28;20417;-87
2021/01/25 10:18:48;;;;;;;3.40;2.37;;;22.50;49.60;;;;;;5050001;28;20406;-87
2021/01/25 10:21:22;;;;;;;3.57;3.27;;;22.50;49.60;;;;;;5052704;28;20421;-86
2021/01/25 10:23:52;;;;;;;3.00;2.20;;;22.50;49.60;;;;;;5052498;28;20501;-86
2021/01/25 10:26:20;;;;;;;3.80;2.73;;;22.50;49.60;;;;;;5035171;28;20422;-86
2021/01/25 10:28:46;;;;;;;3.03;2.30;;;22.50;49.60;;;;;;5054117;28;20410;-87
2021/01/25 10:31:17;;;;;;;3.57;2.20;;;22.50;49.60;;;;;;5051581;28;20416;-86
2021/01/25 10:33:44;;;;;;;3.93;2.53;;;22.50;49.50;;;;;;5068181;28;20724;-86
2021/01/25 10:36:10;;;;;;;2.77;2.30;;;22.60;49.60;;;;;;5050539;28;20422;-86
2021/01/25 10:38:36;;;;;;;3.50;2.70;;;22.60;49.70;;;;;;5049508;28;20409;-86
2021/01/25 10:41:03;;;;;;;3.07;2.50;;;22.60;49.70;;;;;;5046899;28;20433;-86
2021/01/25 10:43:29;;;;;;;3.23;2.30;;;22.60;49.70;;;;;;5043884;28;20460;-86
2021/01/25 10:46:04;;;;;;;2.87;1.90;;;22.60;49.70;;;;;;5041686;28;20895;-86
2021/01/25 10:48:30;;;;;;;4.07;2.60;;;22.60;49.70;;;;;;5051790;28;20174;-86
2021/01/25 10:50:55;;;;;;;3.20;2.30;;;22.70;49.70;;;;;;5066707;28;20412;-84
2021/01/25 10:53:21;;;;;;;3.27;2.30;;;22.60;49.70;;;;;;5061427;28;20416;-84
2021/01/25 10:55:47;;;;;;;3.93;2.50;;;22.60;49.70;;;;;;5062873;28;20466;-84
2021/01/25 10:58:13;;;;;;;4.00;2.37;;;22.60;49.70;;;;;;5069613;28;20181;-85
2021/01/25 11:00:39;;;;;;;3.43;2.10;;;22.60;49.70;;;;;;5039039;28;20449;-86
2021/01/25 11:03:05;;;;;;;2.90;2.20;;;22.60;49.60;;;;;;5068867;28;20214;-85
2021/01/25 11:05:31;;;;;;;3.20;2.20;;;22.60;49.70;;;;;;5044743;28;20182;-85
2021/01/25 11:07:57;;;;;;;3.67;2.50;;;22.60;49.60;;;;;;5059597;28;20477;-87
2021/01/25 11:10:25;;;;;;;3.70;2.70;;;22.70;49.70;;;;;;5053690;28;20441;-85
2021/01/25 11:12:52;;;;;;;3.57;2.50;;;22.60;49.60;;;;;;5055355;28;20205;-85
2021/01/25 11:15:20;;;;;;;3.07;2.43;;;22.60;49.70;;;;;;5063557;28;20469;-85
2021/01/25 11:17:46;;;;;;;2.90;1.93;;;22.60;49.70;;;;;;5034892;28;20411;-84
2021/01/25 11:20:12;;;;;;;2.90;2.30;;;22.60;49.70;;;;;;5052555;28;20479;-84
2021/01/25 11:22:40;;;;;;;4.53;2.93;;;22.70;49.80;;;;;;5053392;28;20433;-86
2021/01/25 11:25:09;;;;;;;4.17;2.60;;;22.70;49.80;;;;;;5034308;28;20422;-85
2021/01/25 11:27:35;;;;;;;4.50;2.87;;;22.60;49.80;;;;;;5032644;28;20435;-85
2021/01/25 11:30:08;;;;;;;3.23;2.83;;;22.60;49.80;;;;;;5033243;28;20434;-85
2021/01/25 11:32:42;;;;;;;5.80;2.47;;;22.60;49.80;;;;;;5035347;28;20425;-86
2021/01/25 11:35:09;;;;;;;3.07;2.50;;;22.60;49.80;;;;;;5034483;28;20534;-85
2021/01/25 11:37:40;;;;;;;3.93;2.60;;;22.60;49.80;;;;;;5054563;28;20422;-86
2021/01/25 11:40:07;;;;;;;5.07;3.27;;;22.60;49.80;;;;;;5036294;28;20824;-84
2021/01/25 11:42:42;;;;;;;4.67;2.77;;;22.60;49.80;;;;;;5037362;28;20421;-86
2021/01/25 11:45:08;;;;;;;3.53;2.60;;;22.60;49.80;;;;;;5035813;28;20414;-84
2021/01/25 11:47:37;;;;;;;3.73;2.63;;;22.60;49.80;;;;;;5033894;28;20452;-87
2021/01/25 11:50:06;;;;;;;6.10;2.40;;;22.60;49.80;;;;;;5052506;28;20406;-85
2021/01/25 11:52:31;;;;;;;5.90;2.40;;;22.60;49.80;;;;;;5051172;28;20429;-86
2021/01/25 11:54:57;;;;;;;4.23;2.57;;;22.50;49.70;;;;;;5050603;28;20450;-86
2021/01/25 11:57:23;;;;;;;3.27;2.50;;;22.50;49.80;;;;;;5050199;28;20247;-85
2021/01/25 11:59:49;;;;;;;5.70;2.90;;;22.50;49.80;;;;;;5032389;28;20241;-87
2021/01/25 12:02:15;;;;;;;5.13;3.47;;;22.50;49.80;;;;;;5033329;28;20214;-86
2021/01/25 12:04:40;;;;;;;4.67;2.87;;;22.50;49.80;;;;;;5032226;28;20558;-87
2021/01/25 12:07:06;;;;;;;3.00;2.17;;;22.50;49.80;;;;;;5050165;28;20411;-87
2021/01/25 12:09:33;;;;;;;9.43;3.90;;;22.50;49.80;;;;;;5050737;28;20210;-87
2021/01/25 12:12:02;;;;;;;5.33;2.60;;;22.50;49.80;;;;;;5015796;28;20685;-86
2021/01/25 12:14:28;;;;;;;5.00;3.10;;;22.50;49.80;;;;;;5050120;28;20478;-87
2021/01/25 12:16:57;;;;;;;5.00;2.70;;;22.50;49.90;;;;;;5033433;28;20422;-86
2021/01/25 12:19:26;;;;;;;4.53;2.10;;;22.50;49.90;;;;;;5033224;28;20172;-86
2021/01/25 12:21:52;;;;;;;6.70;2.80;;;22.50;49.90;;;;;;5052441;28;20409;-86
2021/01/25 12:27:40;;;;;;;3.23;2.50;;;22.50;49.90;;;;;;5049559;28;20741;-86
2021/01/25 12:30:07;;;;;;;5.37;3.57;;;22.40;49.90;;;;;;5048308;28;20410;-86
2021/01/25 12:32:34;;;;;;;3.77;2.40;;;22.40;49.90;;;;;;5051702;28;20410;-86
2021/01/25 12:35:03;;;;;;;5.33;2.90;;;22.40;49.90;;;;;;5049124;28;20836;-87
2021/01/25 12:37:29;;;;;;;3.70;2.10;;;22.40;50.00;;;;;;5030430;28;20429;-85
2021/01/25 12:39:55;;;;;;;5.43;3.63;;;22.40;50.00;;;;;;5047853;28;20415;-85
2021/01/25 12:42:26;;;;;;;4.53;3.30;;;22.50;50.00;;;;;;5049168;28;20164;-85
2021/01/25 12:44:52;;;;;;;3.47;2.23;;;22.40;50.00;;;;;;5031243;28;20406;-85
2021/01/25 12:47:18;;;;;;;2.70;2.07;;;22.40;50.00;;;;;;5031256;28;20521;-85
2021/01/25 12:49:45;;;;;;;3.43;2.53;;;22.40;50.00;;;;;;5031071;28;20488;-86
2021/01/25 12:52:11;;;;;;;5.50;2.33;;;22.40;49.90;;;;;;5032256;28;20414;-85
2021/01/25 12:54:37;;;;;;;3.77;2.70;;;22.40;50.00;;;;;;5033051;28;20529;-85
2021/01/25 12:57:03;;;;;;;4.80;2.97;;;22.40;50.00;;;;;;5033620;28;20247;-85
2021/01/25 12:59:30;;;;;;;3.47;2.07;;;22.40;49.90;;;;;;5035799;28;20418;-85
2021/01/25 13:01:57;;;;;;;2.60;2.33;;;22.50;50.00;;;;;;5052313;28;20422;-84
2021/01/25 13:04:23;;;;;;;2.83;1.90;;;22.50;50.00;;;;;;5034877;28;20468;-83
2021/01/25 13:06:52;;;;;;;4.00;2.27;;;22.50;50.00;;;;;;5036000;28;20426;-84
2021/01/25 13:09:24;;;;;;;4.00;2.40;;;22.50;50.00;;;;;;5033847;28;20792;-84
2021/01/25 13:11:50;;;;;;;7.20;2.30;;;22.60;50.00;;;;;;5027263;28;20430;-84
2021/01/25 13:14:18;;;;;;;2.60;2.37;;;22.50;50.00;;;;;;5034758;28;20467;-85
2021/01/25 13:16:44;;;;;;;3.30;2.40;;;22.50;50.00;;;;;;5015559;28;20414;-86
2021/01/25 13:19:13;;;;;;;2.60;2.13;;;22.50;50.00;;;;;;5030477;28;20442;-85
2021/01/25 13:21:41;;;;;;;2.80;2.20;;;22.50;50.00;;;;;;5034174;28;20224;-84
2021/01/25 13:24:58;;;;;;;5.53;2.77;;;22.50;50.00;;;;;;4988836;28;20426;-84
2021/01/25 13:27:24;;;;;;;4.63;2.40;;;22.50;50.00;;;;;;4972410;28;20432;-85
2021/01/25 13:29:52;;;;;;;4.03;2.47;;;22.40;50.00;;;;;;4988934;28;20923;-84
2021/01/25 13:32:18;;;;;;;3.53;2.07;;;22.50;50.10;;;;;;4988724;28;20427;-84
2021/01/25 13:34:44;;;;;;;4.70;2.63;;;22.40;50.00;;;;;;4988806;28;20469;-85
2021/01/25 13:37:13;;;;;;;2.70;2.30;;;22.50;50.10;;;;;;4988616;28;20553;-84